Time;durP1;ratioP1;P1;durP2;ratioP2;P2;SDS_P1;SDS_P2;PMS_P1;PMS_P2;Temp;Humidity;BMP_temperature;BMP_pressure;BME280_temperature;BME280_humidity;BME280_pressure;Samples;Min_cycle;Max_cycle;Signal;HPM_P1;HPM_P2
2022/09/24 00:01:13;;;;;;;0.50;0.50;;;;;;;12.59;79.00;100267.19;5064367;28;20047;-69
2022/09/24 00:03:40;;;;;;;0.40;0.40;;;;;;;12.52;79.30;100261.28;5064893;28;20033;-69
2022/09/24 00:06:07;;;;;;;0.43;0.43;;;;;;;12.55;79.39;100263.81;5065490;28;20020;-69
2022/09/24 00:08:34;;;;;;;0.40;0.40;;;;;;;12.56;79.09;100262.91;5065554;28;20025;-69
2022/09/24 00:11:05;;;;;;;0.40;0.40;;;;;;;12.53;79.15;100262.97;5065159;28;20040;-69
2022/09/24 00:13:31;;;;;;;0.50;0.50;;;;;;;12.49;79.43;100259.56;5065867;28;20076;-69
2022/09/24 00:16:02;;;;;;;0.32;0.32;;;;;;;12.47;79.15;100245.75;5065653;28;20053;-69
2022/09/24 00:18:28;;;;;;;1.42;1.42;;;;;;;12.52;79.03;100248.25;5065917;28;20029;-70
2022/09/24 00:20:54;;;;;;;0.40;0.40;;;;;;;12.51;79.27;100256.94;5065649;28;20060;-69
2022/09/24 00:23:19;;;;;;;0.32;0.32;;;;;;;12.48;79.54;100247.44;5065498;28;20025;-69
2022/09/24 00:28:31;;;;;;;0.35;0.35;;;;;;;12.46;79.65;100250.97;5065780;28;20039;-69
2022/09/24 00:30:57;;;;;;;0.40;0.40;;;;;;;12.47;79.68;100253.56;5065195;28;20051;-69
2022/09/24 00:33:30;;;;;;;0.82;0.82;;;;;;;12.41;79.76;100248.47;5065229;28;20021;-69
2022/09/24 00:36:03;;;;;;;0.40;0.40;;;;;;;12.42;79.92;100249.31;5065495;28;20025;-69
2022/09/24 00:38:30;;;;;;;0.40;0.40;;;;;;;12.43;79.83;100244.06;5065187;28;20025;-70
2022/09/24 00:40:56;;;;;;;0.40;0.40;;;;;;;12.43;79.74;100240.63;5065433;28;20027;-69
2022/09/24 00:43:22;;;;;;;0.40;0.40;;;;;;;12.46;79.72;100236.19;5065310;28;20096;-70
2022/09/24 00:45:49;;;;;;;0.30;0.30;;;;;;;12.44;79.76;100240.59;5065363;28;20031;-70
2022/09/24 00:48:14;;;;;;;0.40;0.40;;;;;;;12.38;80.11;100233.75;5065042;28;20076;-69
2022/09/24 00:50:40;;;;;;;0.95;0.95;;;;;;;12.46;79.89;100236.19;5065123;28;20029;-69
2022/09/24 00:53:11;;;;;;;0.40;0.40;;;;;;;12.42;79.92;100238.88;5065150;28;20072;-69
2022/09/24 00:55:38;;;;;;;0.40;0.40;;;;;;;12.42;80.28;100237.16;5063871;28;20354;-69
2022/09/24 00:58:07;;;;;;;0.30;0.30;;;;;;;12.42;80.30;100238.88;5065185;28;20059;-69
2022/09/24 01:00:35;;;;;;;0.60;0.60;;;;;;;12.38;80.18;100233.75;5065260;28;20085;-69
2022/09/24 01:03:05;;;;;;;0.40;0.40;;;;;;;12.31;80.33;100224.34;5064884;28;20413;-69
2022/09/24 01:05:31;;;;;;;0.32;0.32;;;;;;;12.39;80.46;100237.22;5064800;28;20017;-69
2022/09/24 01:07:57;;;;;;;0.30;0.30;;;;;;;12.35;80.45;100236.41;5063669;28;20013;-68
2022/09/24 01:10:48;;;;;;;0.40;0.40;;;;;;;12.36;80.66;100238.09;5064446;28;20031;-69
2022/09/24 01:13:30;;;;;;;0.40;0.40;;;;;;;12.34;80.49;100228.63;5065118;28;20025;-69
2022/09/24 01:16:12;;;;;;;0.95;0.95;;;;;;;12.28;80.54;100216.59;5064563;28;20021;-69
2022/09/24 01:18:53;;;;;;;0.45;0.45;;;;;;;12.35;80.46;100228.59;5065037;28;20025;-69
2022/09/24 01:21:35;;;;;;;0.40;0.40;;;;;;;12.33;80.55;100227.75;5064619;28;20029;-69
2022/09/24 01:24:23;;;;;;;2.95;2.25;;;;;;;12.34;80.57;100226.00;5064867;28;20029;-69
2022/09/24 01:27:11;;;;;;;0.40;0.40;;;;;;;12.30;80.59;100221.75;5065094;28;20047;-70
2022/09/24 01:29:42;;;;;;;0.38;0.38;;;;;;;12.30;80.77;100217.41;5064729;28;20028;-69
2022/09/24 01:32:30;;;;;;;0.50;0.50;;;;;;;12.30;80.66;100221.75;5063710;28;20521;-69
2022/09/24 01:35:01;;;;;;;0.40;0.40;;;;;;;12.35;80.49;100226.00;5064872;28;20471;-69
2022/09/24 01:37:30;;;;;;;0.40;0.40;;;;;;;12.28;80.70;100221.81;5064521;28;20492;-69
2022/09/24 01:39:57;;;;;;;0.35;0.35;;;;;;;12.24;81.02;100218.38;5064778;28;20516;-69
2022/09/24 01:42:26;;;;;;;0.30;0.30;;;;;;;12.23;80.82;100211.47;5064705;28;20028;-68
2022/09/24 01:44:53;;;;;;;1.77;1.67;;;;;;;12.27;80.68;100220.06;5064618;28;20029;-69
2022/09/24 01:47:29;;;;;;;0.40;0.40;;;;;;;12.23;80.71;100215.81;5064726;28;20025;-69
2022/09/24 01:49:55;;;;;;;0.40;0.40;;;;;;;12.24;81.08;100227.94;5064645;28;20076;-69
2022/09/24 01:52:27;;;;;;;0.40;0.40;;;;;;;12.27;80.63;100225.25;5064187;28;20032;-69
2022/09/24 01:54:55;;;;;;;0.40;0.40;;;;;;;12.29;80.62;100220.91;5064919;28;20040;-70
2022/09/24 01:57:24;;;;;;;0.30;0.30;;;;;;;12.22;80.85;100217.53;5064558;28;20063;-68
2022/09/24 02:00:09;;;;;;;0.40;0.40;;;;;;;12.23;80.55;100221.88;5063314;28;20112;-69
2022/09/24 02:02:44;;;;;;;0.40;0.40;;;;;;;12.19;80.71;100216.75;5064559;28;20052;-67
2022/09/24 02:05:23;;;;;;;0.30;0.30;;;;;;;12.22;80.63;100214.09;5064566;28;20039;-68
2022/09/24 02:08:10;;;;;;;0.40;0.40;;;;;;;12.24;80.37;100215.78;5064699;28;20025;-68
2022/09/24 02:11:05;;;;;;;0.40;0.40;;;;;;;12.21;80.60;100210.63;5064013;28;20025;-68
2022/09/24 02:13:38;;;;;;;0.43;0.43;;;;;;;12.13;80.53;100208.19;5063976;28;20013;-68
2022/09/24 02:16:08;;;;;;;0.40;0.40;;;;;;;12.09;80.87;100209.09;5063044;28;20041;-68
2022/09/24 02:18:38;;;;;;;0.32;0.32;;;;;;;12.03;81.25;100214.38;5063070;28;20028;-68
2022/09/24 02:21:08;;;;;;;0.30;0.30;;;;;;;12.02;81.15;100199.66;5066104;28;20025;-68
2022/09/24 02:23:37;;;;;;;0.30;0.30;;;;;;;12.05;81.02;100215.22;5067892;28;20560;-68
2022/09/24 02:26:04;;;;;;;0.40;0.40;;;;;;;11.98;81.03;100205.81;5067827;28;20024;-68
2022/09/24 02:28:31;;;;;;;0.30;0.30;;;;;;;12.02;81.15;100208.34;5067573;28;20063;-68
2022/09/24 02:31:13;;;;;;;0.30;0.30;;;;;;;12.00;81.20;100211.84;5067797;28;20108;-68
2022/09/24 02:36:29;;;;;;;0.52;0.52;;;;;;;11.93;81.41;100202.44;5067642;28;20035;-68
2022/09/24 02:38:54;;;;;;;0.40;0.40;;;;;;;11.89;81.29;100205.09;5066852;28;20024;-68
2022/09/24 02:41:22;;;;;;;0.40;0.40;;;;;;;11.90;81.49;100205.97;5067454;28;20074;-68
2022/09/24 02:43:49;;;;;;;0.40;0.40;;;;;;;11.87;81.44;100198.19;5067215;28;20025;-68
2022/09/24 02:46:14;;;;;;;0.40;0.40;;;;;;;11.86;81.35;100209.47;5067511;28;20111;-68
2022/09/24 02:48:40;;;;;;;0.40;0.40;;;;;;;11.88;81.52;100205.97;5067569;28;20021;-68
2022/09/24 02:51:05;;;;;;;0.40;0.40;;;;;;;11.82;81.61;100200.03;5066022;28;20040;-68
2022/09/24 02:53:31;;;;;;;0.40;0.40;;;;;;;11.78;81.67;100205.28;5067546;28;20029;-68
2022/09/24 02:55:59;;;;;;;0.57;0.57;;;;;;;11.71;82.10;100205.41;5067432;28;20103;-68
2022/09/24 02:58:24;;;;;;;0.40;0.40;;;;;;;11.62;82.41;100201.19;5065992;28;20028;-67
2022/09/24 03:00:49;;;;;;;0.30;0.30;;;;;;;11.71;82.30;100202.81;5067325;28;20047;-68
2022/09/24 03:03:15;;;;;;;0.40;0.40;;;;;;;11.66;82.15;100200.28;5067099;28;20507;-68
2022/09/24 03:05:40;;;;;;;1.92;1.83;;;;;;;11.74;82.13;100208.78;5065653;28;20029;-68
2022/09/24 03:08:06;;;;;;;0.40;0.40;;;;;;;11.62;82.68;100206.41;5067168;28;20025;-68
2022/09/24 03:10:32;;;;;;;1.63;1.52;;;;;;;11.68;82.48;100213.25;5066502;28;20020;-68
2022/09/24 03:12:57;;;;;;;0.43;0.43;;;;;;;11.49;82.76;100210.94;5066986;28;20086;-68
2022/09/24 03:15:23;;;;;;;0.30;0.30;;;;;;;11.44;83.23;100211.00;5067385;28;20025;-68
2022/09/24 03:17:48;;;;;;;0.40;0.40;;;;;;;11.55;83.02;100217.78;5066934;28;20052;-68
2022/09/24 03:20:14;;;;;;;0.50;0.50;;;;;;;11.57;82.66;100206.47;5065674;28;20051;-68
2022/09/24 03:22:39;;;;;;;0.40;0.40;;;;;;;11.49;83.17;100204.00;5066615;28;20144;-67
2022/09/24 03:25:05;;;;;;;0.40;0.40;;;;;;;11.46;83.36;100213.56;5066713;28;20025;-68
2022/09/24 03:27:30;;;;;;;0.40;0.40;;;;;;;11.48;83.38;100217.03;5065243;28;20025;-68
2022/09/24 03:32:39;;;;;;;0.40;0.40;;;;;;;11.31;83.35;100181.72;5066103;28;20492;-70
2022/09/24 03:35:05;;;;;;;0.40;0.40;;;;;;;11.45;83.73;100211.88;5066762;28;20484;-69
2022/09/24 03:37:33;;;;;;;0.40;0.40;;;;;;;11.47;83.50;100197.13;5066585;28;20031;-69
2022/09/24 03:39:58;;;;;;;0.30;0.30;;;;;;;11.57;83.07;100198.66;5066127;28;20099;-69
2022/09/24 03:42:24;;;;;;;0.38;0.38;;;;;;;11.60;82.92;100198.63;5066116;28;20048;-70
2022/09/24 03:44:52;;;;;;;0.40;0.40;;;;;;;11.55;83.18;100197.00;5066206;28;20209;-70
2022/09/24 03:47:17;;;;;;;0.40;0.40;;;;;;;11.52;83.25;100192.69;5065382;28;20017;-69
2022/09/24 03:49:44;;;;;;;0.40;0.40;;;;;;;11.58;83.01;100192.56;5065351;28;20083;-70
2022/09/24 03:52:09;;;;;;;0.40;0.40;;;;;;;11.47;83.51;100192.75;5065454;28;20033;-69
2022/09/24 03:54:35;;;;;;;0.65;0.65;;;;;;;11.49;83.47;100203.13;5064927;28;20017;-70
2022/09/24 03:57:00;;;;;;;0.40;0.40;;;;;;;11.49;83.21;100201.41;5066352;28;20025;-70
2022/09/24 03:59:25;;;;;;;0.47;0.47;;;;;;;11.49;82.88;100183.19;5065438;28;20025;-70
2022/09/24 04:01:51;;;;;;;0.40;0.40;;;;;;;11.55;82.81;100187.44;5065948;28;20025;-70
2022/09/24 04:04:16;;;;;;;0.40;0.40;;;;;;;11.53;82.78;100184.84;5064777;28;20039;-69
2022/09/24 04:06:41;;;;;;;0.88;0.88;;;;;;;11.53;82.47;100182.25;5066028;28;20024;-70
2022/09/24 04:09:07;;;;;;;0.40;0.40;;;;;;;11.46;83.01;100185.84;5065518;28;20028;-69
2022/09/24 04:11:34;;;;;;;0.40;0.40;;;;;;;11.47;82.93;100191.91;5066004;28;20021;-69
2022/09/24 04:13:59;;;;;;;0.40;0.40;;;;;;;11.48;82.83;100185.81;5063669;28;20234;-69
2022/09/24 04:16:25;;;;;;;0.50;0.50;;;;;;;11.45;82.58;100185.88;5064602;28;20056;-69
2022/09/24 04:18:50;;;;;;;0.40;0.40;;;;;;;11.46;82.38;100184.97;5065603;28;20096;-69
2022/09/24 04:21:16;;;;;;;0.40;0.40;;;;;;;11.49;82.64;100193.59;5064804;28;20412;-69
2022/09/24 04:23:41;;;;;;;0.40;0.40;;;;;;;11.47;82.32;100184.13;5065267;28;20036;-69
2022/09/24 04:26:07;;;;;;;0.40;0.40;;;;;;;11.47;82.22;100189.31;5065771;28;20052;-69
2022/09/24 04:28:32;;;;;;;0.40;0.40;;;;;;;11.40;82.55;100188.53;5065514;28;20100;-69
2022/09/24 04:30:58;;;;;;;0.40;0.40;;;;;;;11.42;82.52;100192.00;5064383;28;20021;-70
2022/09/24 04:33:23;;;;;;;0.40;0.40;;;;;;;11.41;82.24;100195.44;5065761;28;20112;-71
2022/09/24 04:35:48;;;;;;;0.40;0.40;;;;;;;11.40;82.62;100204.13;5065596;28;20032;-69
2022/09/24 04:38:14;;;;;;;0.40;0.40;;;;;;;11.39;82.57;100203.28;5065631;28;20057;-70
2022/09/24 04:40:39;;;;;;;0.45;0.45;;;;;;;11.42;82.42;100202.38;5064104;28;20481;-71
2022/09/24 04:43:05;;;;;;;0.40;0.40;;;;;;;11.46;82.38;100200.56;5063308;28;20021;-70
2022/09/24 04:45:32;;;;;;;0.40;0.40;;;;;;;11.37;82.45;100188.59;5064716;28;20047;-70
2022/09/24 04:47:57;;;;;;;0.40;0.40;;;;;;;11.39;82.29;100187.69;5064254;28;20175;-71
2022/09/24 04:50:27;;;;;;;0.35;0.35;;;;;;;11.44;82.13;100191.97;5068403;28;20065;-71
2022/09/24 04:52:54;;;;;;;0.38;0.38;;;;;;;11.39;81.91;100190.28;5072182;28;20055;-71
2022/09/24 04:55:19;;;;;;;0.40;0.40;;;;;;;11.36;81.98;100195.53;5065583;28;20061;-71
2022/09/24 04:57:46;;;;;;;0.40;0.40;;;;;;;11.44;81.65;100194.56;5065804;28;20079;-70
2022/09/24 05:00:14;;;;;;;0.40;0.40;;;;;;;11.28;82.13;100195.63;5064063;28;20032;-70
2022/09/24 05:02:40;;;;;;;0.40;0.40;;;;;;;11.28;81.64;100184.38;5065434;28;20083;-71
2022/09/24 05:05:05;;;;;;;0.43;0.43;;;;;;;11.30;81.95;100193.03;5065381;28;20025;-71
2022/09/24 05:07:31;;;;;;;0.40;0.40;;;;;;;11.25;81.87;100193.09;5065388;28;20025;-72
2022/09/24 05:09:56;;;;;;;0.40;0.40;;;;;;;11.23;81.89;100188.81;5065807;28;20421;-70
2022/09/24 05:12:22;;;;;;;0.40;0.40;;;;;;;11.25;82.06;100192.22;5065145;28;20032;-70
2022/09/24 05:14:47;;;;;;;0.40;0.40;;;;;;;11.29;81.74;100186.13;5065411;28;20053;-70
2022/09/24 05:17:13;;;;;;;0.40;0.40;;;;;;;11.07;82.19;100177.78;5065186;28;20075;-70
2022/09/24 05:19:38;;;;;;;0.40;0.40;;;;;;;11.21;81.85;100194.03;5065187;28;20090;-70
2022/09/24 05:22:04;;;;;;;0.40;0.40;;;;;;;11.26;81.36;100199.16;5064946;28;20046;-69
2022/09/24 05:24:29;;;;;;;0.40;0.40;;;;;;;11.22;81.53;100198.34;5063731;28;20116;-70
2022/09/24 05:27:09;;;;;;;0.40;0.40;;;;;;;11.20;81.17;100200.09;5064074;28;20021;-69
2022/09/24 05:29:40;;;;;;;0.40;0.40;;;;;;;11.12;81.61;100202.78;5063678;28;20036;-69
2022/09/24 05:32:07;;;;;;;1.05;1.05;;;;;;;11.20;81.38;100202.69;5064796;28;20036;-69
2022/09/24 05:34:33;;;;;;;0.40;0.40;;;;;;;11.12;81.40;100205.41;5064903;28;20028;-69
2022/09/24 05:36:59;;;;;;;0.40;0.40;;;;;;;11.04;81.79;100196.84;5065079;28;20025;-69
2022/09/24 05:39:24;;;;;;;0.40;0.40;;;;;;;11.19;80.94;100203.56;5065137;28;20028;-69
2022/09/24 05:41:49;;;;;;;0.40;0.40;;;;;;;11.07;81.63;100206.34;5064946;28;20035;-69
2022/09/24 05:44:18;;;;;;;0.40;0.40;;;;;;;11.14;81.17;100206.25;5064851;28;20021;-70
2022/09/24 05:46:43;;;;;;;0.40;0.40;;;;;;;11.14;81.01;100203.63;5064941;28;20036;-70
2022/09/24 05:49:09;;;;;;;0.40;0.40;;;;;;;11.21;80.73;100209.63;5064910;28;20039;-69
2022/09/24 05:51:34;;;;;;;0.40;0.40;;;;;;;11.18;80.85;100212.25;5064630;28;20053;-70
2022/09/24 05:54:00;;;;;;;0.40;0.40;;;;;;;11.10;81.44;100212.34;5064812;28;20028;-70
2022/09/24 05:56:25;;;;;;;0.95;0.95;;;;;;;11.20;80.80;100212.25;5067275;28;20025;-70
2022/09/24 05:58:50;;;;;;;0.40;0.40;;;;;;;11.30;80.27;100212.94;5068580;28;20032;-69
2022/09/24 06:01:16;;;;;;;0.40;0.40;;;;;;;11.36;79.67;100211.13;5068515;28;20321;-70
2022/09/24 06:03:41;;;;;;;0.50;0.50;;;;;;;11.14;80.59;100219.22;5068316;28;20025;-70
2022/09/24 06:06:06;;;;;;;0.40;0.40;;;;;;;11.19;80.44;100221.75;5068133;28;20032;-70
2022/09/24 06:08:32;;;;;;;0.40;0.40;;;;;;;11.29;80.13;100222.50;5068340;28;20029;-68
2022/09/24 06:11:07;;;;;;;0.40;0.40;;;;;;;11.12;80.52;100215.78;5068249;28;20020;-68
2022/09/24 06:13:34;;;;;;;0.40;0.40;;;;;;;11.09;80.74;100204.56;5066867;28;20017;-68
2022/09/24 06:16:11;;;;;;;0.40;0.40;;;;;;;11.02;80.70;100225.44;5068059;28;20044;-69
2022/09/24 06:18:40;;;;;;;0.40;0.40;;;;;;;11.03;80.57;100215.91;5068229;28;20040;-69
2022/09/24 06:21:16;;;;;;;0.40;0.40;;;;;;;11.04;80.83;100222.81;5067987;28;20036;-69
2022/09/24 06:23:44;;;;;;;0.40;0.40;;;;;;;10.95;80.90;100222.94;5067737;28;20029;-70
2022/09/24 06:26:11;;;;;;;0.40;0.40;;;;;;;10.99;80.94;100222.03;5068124;28;20045;-69
2022/09/24 06:28:37;;;;;;;0.40;0.40;;;;;;;10.95;81.45;100225.53;5067933;28;20481;-70
2022/09/24 06:31:03;;;;;;;0.40;0.40;;;;;;;10.99;81.18;100224.63;5068119;28;20025;-69
2022/09/24 06:33:30;;;;;;;0.40;0.40;;;;;;;11.03;80.74;100216.78;5067273;28;20021;-70
2022/09/24 06:36:00;;;;;;;0.40;0.40;;;;;;;11.05;80.76;100228.88;5067917;28;20155;-69
2022/09/24 06:38:25;;;;;;;0.40;0.40;;;;;;;11.13;80.98;100224.44;5067975;28;20035;-71
2022/09/24 06:40:51;;;;;;;0.40;0.40;;;;;;;11.09;80.87;100223.63;5066401;28;20036;-71
2022/09/24 06:43:17;;;;;;;0.40;0.40;;;;;;;11.22;80.80;100219.13;5067628;28;20060;-70
2022/09/24 06:45:43;;;;;;;0.40;0.40;;;;;;;11.25;80.48;100224.28;5067856;28;20031;-70
2022/09/24 06:48:13;;;;;;;0.40;0.40;;;;;;;11.17;81.17;100222.69;5067755;28;20056;-69
2022/09/24 06:50:42;;;;;;;0.40;0.40;;;;;;;11.20;80.96;100223.47;5067507;28;20020;-69
2022/09/24 06:53:08;;;;;;;0.45;0.45;;;;;;;11.21;80.82;100216.53;5066309;28;20029;-69
2022/09/24 06:55:35;;;;;;;0.40;0.40;;;;;;;11.24;80.91;100229.50;5067413;28;20031;-69
2022/09/24 06:58:03;;;;;;;0.40;0.40;;;;;;;11.26;81.25;100222.53;5067578;28;20056;-70
2022/09/24 07:00:28;;;;;;;0.40;0.40;;;;;;;11.24;81.11;100226.91;5067512;28;20052;-68
2022/09/24 07:02:54;;;;;;;0.40;0.40;;;;;;;11.18;81.75;100230.44;5066939;28;20333;-68
2022/09/24 07:05:19;;;;;;;0.40;0.40;;;;;;;11.15;81.58;100231.31;5067394;28;20028;-69
2022/09/24 07:07:45;;;;;;;3.33;1.35;;;;;;;11.24;81.49;100232.09;5066293;28;20033;-67
2022/09/24 07:10:10;;;;;;;0.40;0.40;;;;;;;11.10;82.24;100233.13;5067366;28;20032;-65
2022/09/24 07:12:36;;;;;;;0.40;0.40;;;;;;;11.17;82.44;100230.47;5066059;28;20032;-67
2022/09/24 07:15:02;;;;;;;0.32;0.32;;;;;;;11.23;82.36;100227.78;5067128;28;20029;-68
2022/09/24 07:17:28;;;;;;;4.13;3.80;;;;;;;11.23;82.56;100238.19;5066466;28;20069;-67
2022/09/24 07:19:54;;;;;;;0.40;0.40;;;;;;;11.29;82.41;100238.09;5065805;28;20107;-67
2022/09/24 07:22:20;;;;;;;0.40;0.40;;;;;;;11.31;82.86;100235.47;5065675;28;20052;-66
2022/09/24 07:24:45;;;;;;;0.43;0.43;;;;;;;11.38;82.24;100240.56;5065913;28;20021;-66
2022/09/24 07:27:11;;;;;;;0.50;0.50;;;;;;;11.43;82.25;100243.09;5066248;28;20083;-66
2022/09/24 07:29:37;;;;;;;0.45;0.45;;;;;;;11.38;82.77;100239.69;5065833;28;20032;-66
2022/09/24 07:32:03;;;;;;;0.40;0.40;;;;;;;11.47;82.53;100241.31;5065552;28;20048;-67
2022/09/24 07:34:28;;;;;;;0.40;0.40;;;;;;;11.53;82.45;100241.22;5066749;28;20021;-67
2022/09/24 07:36:55;;;;;;;1.35;1.30;;;;;;;11.54;82.31;100245.53;5066574;28;20025;-67
2022/09/24 07:39:21;;;;;;;0.40;0.40;;;;;;;11.64;82.23;100241.91;5066703;28;20033;-67
2022/09/24 07:41:47;;;;;;;0.40;0.40;;;;;;;11.68;82.26;100247.06;5066724;28;20021;-68
2022/09/24 07:44:12;;;;;;;0.40;0.40;;;;;;;11.82;81.27;100242.47;5066468;28;20029;-69
2022/09/24 07:46:38;;;;;;;0.40;0.40;;;;;;;11.67;82.10;100243.59;5066629;28;20049;-68
2022/09/24 07:49:03;;;;;;;0.40;0.40;;;;;;;11.80;82.27;100253.78;5066724;28;20025;-69
2022/09/24 07:51:29;;;;;;;0.30;0.30;;;;;;;11.84;81.71;100232.91;5066294;28;20029;-68
2022/09/24 07:53:55;;;;;;;0.40;0.40;;;;;;;11.99;82.05;100243.94;5066389;28;20040;-69
2022/09/24 07:56:22;;;;;;;0.30;0.30;;;;;;;12.05;81.72;100248.19;5066497;28;20032;-69
2022/09/24 07:58:48;;;;;;;0.40;0.40;;;;;;;12.09;81.16;100244.69;5066453;28;20104;-69
2022/09/24 08:01:16;;;;;;;0.30;0.30;;;;;;;12.07;81.04;100242.09;5066336;28;20025;-71
2022/09/24 08:03:42;;;;;;;0.40;0.40;;;;;;;12.09;80.89;100247.28;5066150;28;20021;-70
2022/09/24 08:06:07;;;;;;;0.43;0.43;;;;;;;12.05;80.42;100238.63;5066009;28;20055;-70
2022/09/24 08:08:33;;;;;;;0.88;0.88;;;;;;;12.02;80.28;100241.28;5064992;28;20025;-69
2022/09/24 08:11:02;;;;;;;0.40;0.40;;;;;;;12.00;80.54;100235.25;5066198;28;20047;-68
2022/09/24 08:13:28;;;;;;;0.40;0.40;;;;;;;12.04;80.53;100262.94;5066134;28;20460;-70
2022/09/24 08:16:00;;;;;;;0.40;0.40;;;;;;;12.04;80.38;100252.53;5065806;28;20032;-69
2022/09/24 08:18:27;;;;;;;0.40;0.40;;;;;;;12.10;80.06;100252.47;5065790;28;20033;-68
2022/09/24 08:20:52;;;;;;;0.40;0.40;;;;;;;12.13;80.34;100254.16;5065666;28;20017;-68
2022/09/24 08:23:19;;;;;;;0.40;0.40;;;;;;;12.21;79.88;100256.63;5065814;28;20092;-69
2022/09/24 08:25:45;;;;;;;0.40;0.40;;;;;;;12.20;79.88;100252.31;5066060;28;20479;-68
2022/09/24 08:28:11;;;;;;;0.30;0.30;;;;;;;12.21;80.00;100256.63;5065946;28;20032;-70
2022/09/24 08:30:38;;;;;;;0.40;0.40;;;;;;;12.23;79.91;100255.72;5065637;28;20047;-68
2022/09/24 08:33:06;;;;;;;0.40;0.40;;;;;;;12.22;79.62;100245.34;5065810;28;20021;-69
2022/09/24 08:35:33;;;;;;;0.30;0.30;;;;;;;12.30;79.57;100243.44;5065723;28;20024;-68
2022/09/24 08:38:00;;;;;;;0.40;0.40;;;;;;;12.34;79.53;100254.66;5064439;28;20025;-64
2022/09/24 08:40:28;;;;;;;0.40;0.40;;;;;;;12.36;79.67;100256.31;5064385;28;20048;-73
2022/09/24 08:43:09;;;;;;;0.40;0.40;;;;;;;12.43;79.64;100267.50;5065565;28;20031;-71
2022/09/24 08:48:31;;;;;;;0.40;0.40;;;;;;;12.51;78.89;100268.22;5065833;28;20031;-71
2022/09/24 08:51:04;;;;;;;0.45;0.45;;;;;;;12.51;79.21;100269.94;5065454;28;20033;-71
2022/09/24 08:53:45;;;;;;;0.40;0.40;;;;;;;12.55;79.55;100271.63;5064243;28;20048;-72
2022/09/24 08:56:11;;;;;;;0.70;0.70;;;;;;;12.55;79.17;100260.34;5065599;28;20048;-72
2022/09/24 08:58:49;;;;;;;0.30;0.30;;;;;;;12.64;79.02;100266.25;5064329;28;20166;-71
2022/09/24 09:01:44;;;;;;;0.30;0.30;;;;;;;12.59;78.83;100275.88;5065311;28;20067;-71
2022/09/24 09:04:25;;;;;;;2.05;1.95;;;;;;;12.58;79.14;100274.19;5065296;28;20039;-72
2022/09/24 09:06:50;;;;;;;0.30;0.30;;;;;;;12.62;78.92;100270.63;5064165;28;20120;-73
2022/09/24 09:09:54;;;;;;;0.30;0.30;;;;;;;12.65;79.08;100277.53;5065660;28;20025;-73
2022/09/24 09:12:37;;;;;;;0.30;0.30;;;;;;;12.71;78.88;100271.34;5065416;28;20025;-73
2022/09/24 09:15:08;;;;;;;0.35;0.35;;;;;;;12.76;78.68;100277.31;5063970;28;20021;-73
2022/09/24 09:17:41;;;;;;;0.85;0.85;;;;;;;12.76;78.92;100275.53;5065292;28;20053;-73
2022/09/24 09:20:13;;;;;;;0.30;0.30;;;;;;;12.79;78.93;100281.59;5065431;28;20044;-74
2022/09/24 09:22:45;;;;;;;0.35;0.35;;;;;;;12.84;78.77;100275.41;5064885;28;20021;-73
2022/09/24 09:25:23;;;;;;;0.50;0.50;;;;;;;12.86;78.45;100276.22;5063640;28;20044;-73
2022/09/24 09:28:00;;;;;;;0.40;0.40;;;;;;;12.83;78.79;100272.81;5065402;28;20056;-73
2022/09/24 09:30:37;;;;;;;0.40;0.40;;;;;;;12.87;78.97;100275.38;5064850;28;20020;-73
2022/09/24 09:33:20;;;;;;;0.40;0.40;;;;;;;12.98;78.66;100275.13;5069083;28;20021;-72
2022/09/24 09:35:54;;;;;;;0.70;0.70;;;;;;;13.07;78.24;100284.50;5069092;28;20527;-72
2022/09/24 09:38:33;;;;;;;0.30;0.30;;;;;;;13.07;78.29;100281.91;5069104;28;20021;-73
2022/09/24 09:41:05;;;;;;;0.40;0.40;;;;;;;13.17;78.29;100279.09;5069255;28;20021;-71
2022/09/24 09:43:31;;;;;;;;;;;;;;;13.34;78.15;100276.97;5069283;28;20032;-72
2022/09/24 09:46:08;;;;;;;0.63;0.63;;;;;;;13.33;77.94;100277.88;5068960;28;19909;-70
2022/09/24 09:48:59;;;;;;;0.40;0.40;;;;;;;13.43;77.25;100278.53;5068827;28;20028;-72
2022/09/24 09:51:25;;;;;;;0.40;0.40;;;;;;;13.44;77.78;100276.75;5059324;28;20040;-72
2022/09/24 09:53:56;;;;;;;0.50;0.50;;;;;;;13.56;77.77;100280.91;5068905;28;20037;-72
2022/09/24 09:56:25;;;;;;;0.30;0.30;;;;;;;13.68;77.90;100266.69;5068911;28;20035;-71
2022/09/24 09:58:54;;;;;;;0.35;0.35;;;;;;;13.91;77.57;100268.78;5067453;28;20062;-71
2022/09/24 10:01:30;;;;;;;0.40;0.40;;;;;;;14.08;76.86;100268.34;5065951;28;20055;-70
2022/09/24 10:04:03;;;;;;;0.40;0.40;;;;;;;14.19;76.83;100275.03;5068497;28;20051;-70
2022/09/24 10:06:32;;;;;;;0.40;0.40;;;;;;;14.27;75.92;100280.03;5068564;28;20055;-71
2022/09/24 10:09:26;;;;;;;0.40;0.40;;;;;;;14.33;75.70;100278.13;5067022;28;20021;-71
2022/09/24 10:11:52;;;;;;;0.40;0.40;;;;;;;14.43;75.47;100276.16;5065265;28;20036;-72
2022/09/24 10:14:19;;;;;;;0.40;0.40;;;;;;;14.49;75.39;100270.75;5067074;28;20420;-71
2022/09/24 10:16:50;;;;;;;0.30;0.30;;;;;;;14.56;74.65;100276.69;5066410;28;20044;-71
2022/09/24 10:19:18;;;;;;;0.40;0.40;;;;;;;14.60;74.72;100275.69;5067046;28;20049;-70
2022/09/24 10:21:43;;;;;;;0.30;0.30;;;;;;;14.70;74.67;100276.28;5067934;28;20056;-70
2022/09/24 10:24:28;;;;;;;0.25;0.25;;;;;;;14.77;73.62;100274.38;5066822;28;20071;-71
2022/09/24 10:26:54;;;;;;;0.32;0.32;;;;;;;14.71;73.90;100279.78;5066968;28;20117;-71
2022/09/24 10:32:29;;;;;;;0.32;0.32;;;;;;;14.76;73.09;100275.25;5067759;28;20070;-71
2022/09/24 10:34:57;;;;;;;0.40;0.40;;;;;;;14.73;73.29;100278.81;5066536;28;20107;-73
2022/09/24 10:37:23;;;;;;;0.32;0.32;;;;;;;14.72;72.83;100286.69;5066343;28;20093;-71
2022/09/24 10:40:14;;;;;;;0.30;0.30;;;;;;;14.65;72.95;100277.34;5067957;28;20029;-70
2022/09/24 10:42:40;;;;;;;0.90;0.90;;;;;;;14.60;73.38;100280.91;5058849;28;20532;-70
2022/09/24 10:45:12;;;;;;;1.00;0.95;;;;;;;14.53;72.86;100268.06;5067893;28;20039;-71
2022/09/24 10:47:44;;;;;;;0.30;0.30;;;;;;;14.58;73.48;100276.63;5067954;28;20032;-70
2022/09/24 10:50:42;;;;;;;0.57;0.57;;;;;;;14.66;73.35;100276.41;5067942;28;20025;-71
2022/09/24 10:53:37;;;;;;;0.40;0.40;;;;;;;14.73;73.36;100281.44;5032820;28;20020;-70
2022/09/24 10:56:24;;;;;;;0.30;0.30;;;;;;;14.80;73.01;100281.28;5066208;28;20040;-71
2022/09/24 10:59:12;;;;;;;0.30;0.30;;;;;;;14.79;72.57;100279.56;5067751;28;20025;-71
2022/09/24 11:01:45;;;;;;;0.47;0.47;;;;;;;14.81;72.58;100270.78;5067569;28;20027;-70
2022/09/24 11:04:11;;;;;;;0.30;0.30;;;;;;;14.81;72.78;100276.03;5067130;28;20021;-71
2022/09/24 11:07:13;;;;;;;0.30;0.30;;;;;;;14.86;72.61;100274.13;5067374;28;20028;-70
2022/09/24 11:10:05;;;;;;;0.40;0.40;;;;;;;14.94;72.06;100273.91;5067413;28;20075;-70
2022/09/24 11:13:06;;;;;;;0.40;0.40;;;;;;;14.86;72.73;100268.91;5067500;28;20075;-68
2022/09/24 11:15:50;;;;;;;0.77;0.77;;;;;;;15.03;72.54;100270.16;5005306;28;20564;-69
2022/09/24 11:18:37;;;;;;;0.35;0.35;;;;;;;15.16;71.93;100261.97;5005685;28;20038;-69
2022/09/24 11:21:11;;;;;;;0.30;0.30;;;;;;;15.17;72.03;100272.41;5005336;28;20185;-68
2022/09/24 11:24:04;;;;;;;0.93;0.93;;;;;;;15.28;71.40;100268.59;5005296;28;20038;-73
2022/09/24 11:26:54;;;;;;;0.40;0.40;;;;;;;15.32;70.70;100280.69;4927436;29;20183;-74
2022/09/24 11:29:32;;;;;;;0.50;0.50;;;;;;;15.24;71.14;100278.28;4926884;29;20147;-75
2022/09/24 11:32:29;;;;;;;0.30;0.30;;;;;;;15.14;71.35;100282.94;4928256;29;20043;-76
2022/09/24 11:35:02;;;;;;;0.40;0.40;;;;;;;15.23;71.64;100273.97;4928122;29;20063;-77
2022/09/24 11:37:48;;;;;;;0.40;0.40;;;;;;;15.24;70.70;100283.50;4928194;29;20107;-70
2022/09/24 11:40:51;;;;;;;0.30;0.30;;;;;;;15.23;70.41;100287.03;4927982;29;20056;-72
2022/09/24 11:43:20;;;;;;;0.43;0.43;;;;;;;15.13;70.52;100283.00;4871477;29;20184;-70
2022/09/24 11:46:26;;;;;;;0.40;0.40;;;;;;;15.03;70.89;100285.00;4871400;29;20048;-67
2022/09/24 11:49:10;;;;;;;0.35;0.35;;;;;;;15.01;71.01;100282.44;4871393;29;20082;-68
2022/09/24 11:51:45;;;;;;;0.55;0.55;;;;;;;14.98;71.39;100282.53;4891326;29;20047;-67
2022/09/24 11:54:28;;;;;;;0.30;0.30;;;;;;;14.98;71.49;100280.75;4927125;29;20123;-67